createdAt,value
2022-09-27T00:02:23.679Z,96361.41
2022-09-27T00:04:50.098Z,96358.50
2022-09-27T00:07:16.554Z,96353.69
2022-09-27T00:09:42.981Z,96361.97
2022-09-27T00:12:10.067Z,96361.97
2022-09-27T00:14:36.534Z,96364.63
2022-09-27T00:17:03.036Z,96370.50
2022-09-27T00:19:29.431Z,96368.34
2022-09-27T00:21:56.401Z,96362.22
2022-09-27T00:24:23.152Z,96356.38
2022-09-27T00:26:50.202Z,96363.56
2022-09-27T00:29:18.595Z,96362.22
2022-09-27T00:31:45.800Z,96325.19
2022-09-27T00:34:21.633Z,96366.75
2022-09-27T00:36:48.890Z,96339.31
2022-09-27T00:39:15.764Z,96362.50
2022-09-27T00:41:42.644Z,96364.06
2022-09-27T00:44:28.370Z,96366.47
2022-09-27T00:47:08.673Z,96359.31
2022-09-27T00:49:43.282Z,96363.03
2022-09-27T00:52:21.378Z,96358.75
2022-09-27T00:54:51.974Z,96351.84
2022-09-27T00:57:19.733Z,96370.47
2022-09-27T00:59:51.043Z,96355.03
2022-09-27T01:02:18.050Z,96355.03
2022-09-27T01:04:45.653Z,96351.31
2022-09-27T01:07:12.021Z,96361.66
2022-09-27T01:09:39.513Z,96359.28
2022-09-27T01:12:32.494Z,96360.88
2022-09-27T01:15:20.837Z,96355.03
2022-09-27T01:17:50.183Z,96357.19
2022-09-27T01:21:00.623Z,96361.41
2022-09-27T01:24:02.862Z,96356.06
2022-09-27T01:26:38.514Z,96351.84
2022-09-27T01:29:34.113Z,96351.84
2022-09-27T01:32:32.826Z,96354.22
2022-09-27T01:35:15.850Z,96360.34
2022-09-27T01:38:07.016Z,96355.53
2022-09-27T01:40:45.196Z,96357.69
2022-09-27T01:43:37.428Z,96356.59
2022-09-27T01:46:36.468Z,96349.16
2022-09-27T01:49:37.915Z,96364.25
2022-09-27T01:52:08.130Z,96365.09
2022-09-27T01:54:40.563Z,96363.22
2022-09-27T01:57:39.273Z,96360.56
2022-09-27T02:00:12.077Z,96367.22
2022-09-27T02:02:48.143Z,96370.94
2022-09-27T02:05:26.991Z,96367.22
2022-09-27T02:08:02.208Z,96372.25
2022-09-27T02:10:39.497Z,96366.94
2022-09-27T02:13:26.104Z,96371.44
2022-09-27T02:16:05.659Z,96379.47
2022-09-27T02:18:55.380Z,96375.72
2022-09-27T02:21:29.761Z,96374.59
2022-09-27T02:24:02.646Z,96378.84
2022-09-27T02:26:45.976Z,96367.69
2022-09-27T02:29:24.541Z,96387.38
2022-09-27T02:31:53.116Z,96380.44
2022-09-27T02:34:24.096Z,96384.47
2022-09-27T02:36:53.305Z,96390.31
2022-09-27T02:39:21.133Z,96393.22
2022-09-27T02:41:58.393Z,96397.47
2022-09-27T02:44:27.253Z,96405.72
2022-09-27T02:47:16.967Z,96406.19
2022-09-27T02:50:03.358Z,96398.47
2022-09-27T02:53:09.525Z,96405.94
2022-09-27T02:56:00.057Z,96406.41
2022-09-27T02:59:11.345Z,96415.22
2022-09-27T03:02:24.389Z,96421.88
2022-09-27T03:05:30.544Z,96413.63
2022-09-27T03:07:57.354Z,96419.47
2022-09-27T03:10:29.340Z,96424.84
2022-09-27T03:12:58.538Z,96433.00
2022-09-27T03:15:24.955Z,96427.72
2022-09-27T03:18:11.674Z,96428.50
2022-09-27T03:20:56.762Z,96441.28
2022-09-27T03:23:25.694Z,96438.31
2022-09-27T03:25:52.107Z,96438.84
2022-09-27T03:28:19.293Z,96442.06
2022-09-27T03:30:47.453Z,96443.66
2022-09-27T03:33:33.471Z,96444.47
2022-09-27T03:36:05.520Z,96448.75
2022-09-27T03:38:31.970Z,96458.06
2022-09-27T03:40:59.018Z,96459.34
2022-09-27T03:43:25.719Z,96454.25
2022-09-27T03:45:56.594Z,96460.66
2022-09-27T03:48:27.763Z,96462.78
2022-09-27T03:50:54.611Z,96465.69
2022-09-27T03:53:21.203Z,96465.97
2022-09-27T03:55:47.961Z,96470.28
2022-09-27T03:58:14.698Z,96470.53
2022-09-27T04:00:41.296Z,96478.78
2022-09-27T04:03:07.828Z,96477.16
2022-09-27T04:05:53.808Z,96484.06
2022-09-27T04:08:27.943Z,96480.28
2022-09-27T04:10:54.425Z,96462.19
2022-09-27T04:13:21.076Z,96482.41
2022-09-27T04:15:54.135Z,96480.28
2022-09-27T04:18:43.769Z,96492.03
2022-09-27T04:21:36.182Z,96487.22
2022-09-27T04:24:05.186Z,96485.59
2022-09-27T04:26:31.773Z,96484.03
2022-09-27T04:29:02.465Z,96488.22
2022-09-27T04:31:29.702Z,96487.16
2022-09-27T04:34:18.146Z,96481.78
2022-09-27T04:36:44.542Z,96480.75
2022-09-27T04:39:16.303Z,96476.75
2022-09-27T04:41:45.056Z,96473.38
2022-09-27T04:44:11.842Z,96487.81
2022-09-27T04:46:41.139Z,96497.06
2022-09-27T04:49:07.640Z,96493.91
2022-09-27T04:51:36.165Z,96488.34
2022-09-27T04:54:03.846Z,96490.22
2022-09-27T04:56:33.149Z,96500.34
2022-09-27T04:59:01.279Z,96492.63
2022-09-27T05:01:27.783Z,96491.66
2022-09-27T05:04:12.909Z,96499.91
2022-09-27T05:06:43.188Z,96501.25
2022-09-27T05:09:18.147Z,96472.63
2022-09-27T05:11:49.690Z,96507.59
2022-09-27T05:14:16.202Z,96515.25
2022-09-27T05:17:08.750Z,96519.03
2022-09-27T05:20:14.053Z,96527.69
2022-09-27T05:22:53.356Z,96534.66
2022-09-27T05:25:19.779Z,96526.47
2022-09-27T05:27:47.062Z,96536.28
2022-09-27T05:30:13.715Z,96542.41
2022-09-27T05:32:49.234Z,96547.25
2022-09-27T05:35:45.750Z,96548.59
2022-09-27T05:38:12.921Z,96550.69
2022-09-27T05:40:44.294Z,96550.13
2022-09-27T05:43:11.345Z,96552.81
2022-09-27T05:45:38.079Z,96557.81
2022-09-27T05:48:06.616Z,96568.94
2022-09-27T05:50:39.201Z,96563.41
2022-09-27T05:53:06.620Z,96563.19
2022-09-27T05:55:33.061Z,96565.59
2022-09-27T05:58:02.118Z,96572.78
2022-09-27T06:00:51.420Z,96578.94
2022-09-27T06:03:36.589Z,96581.06
2022-09-27T06:06:15.474Z,96585.88
2022-09-27T06:08:55.936Z,96585.25
2022-09-27T06:11:26.297Z,96588.41
2022-09-27T06:13:52.985Z,96589.53
2022-09-27T06:16:19.762Z,96585.75
2022-09-27T06:18:46.174Z,96585.19
2022-09-27T06:21:13.453Z,96581.41
2022-09-27T06:23:43.311Z,96592.66
2022-09-27T06:26:16.404Z,96596.09
2022-09-27T06:29:02.722Z,96592.13
2022-09-27T06:31:31.100Z,96590.00
2022-09-27T06:34:07.209Z,96604.34
2022-09-27T06:36:34.015Z,96604.22
2022-09-27T06:39:01.635Z,96612.13
2022-09-27T06:41:44.163Z,96610.56
2022-09-27T06:44:21.607Z,96612.47
2022-09-27T06:47:27.085Z,96615.75
2022-09-27T06:50:10.034Z,96617.97
2022-09-27T06:52:37.304Z,96616.44
2022-09-27T06:55:05.367Z,96622.88
2022-09-27T06:57:52.204Z,96630.25
2022-09-27T07:00:26.513Z,96626.78
2022-09-27T07:03:23.979Z,96641.72
2022-09-27T07:06:17.499Z,96640.63
2022-09-27T07:08:53.090Z,96639.88
2022-09-27T07:11:23.603Z,96637.78
2022-09-27T07:13:51.753Z,96652.75
2022-09-27T07:16:19.003Z,96649.34
2022-09-27T07:18:48.362Z,96652.69
2022-09-27T07:21:16.230Z,96652.59
2022-09-27T07:23:42.777Z,96652.66
2022-09-27T07:26:12.680Z,96659.53
2022-09-27T07:28:41.548Z,96648.53
2022-09-27T07:31:12.840Z,96628.94
2022-09-27T07:33:43.193Z,96654.97
2022-09-27T07:36:11.683Z,96648.88
2022-09-27T07:38:41.302Z,96654.22
2022-09-27T07:41:10.990Z,96662.59
2022-09-27T07:43:37.422Z,96661.03
2022-09-27T07:46:04.879Z,96651.69
2022-09-27T07:48:43.166Z,96660.59
2022-09-27T07:51:15.238Z,96664.34
2022-09-27T07:53:44.583Z,96659.84
2022-09-27T07:56:29.935Z,96664.94
2022-09-27T07:58:57.177Z,96659.56
2022-09-27T08:01:23.927Z,96657.97
2022-09-27T08:03:50.740Z,96659.03
2022-09-27T08:06:19.081Z,96662.25
2022-09-27T08:08:47.348Z,96674.25
2022-09-27T08:11:16.425Z,96668.66
2022-09-27T08:13:45.670Z,96669.16
2022-09-27T08:16:14.148Z,96666.19
2022-09-27T08:19:07.213Z,96660.84
2022-09-27T08:21:58.889Z,96666.44
2022-09-27T08:24:30.544Z,96681.66
2022-09-27T08:27:14.860Z,96673.97
2022-09-27T08:29:57.568Z,96670.50
2022-09-27T08:32:24.021Z,96683.09
2022-09-27T08:34:51.593Z,96693.75
2022-09-27T08:37:20.539Z,96691.31
2022-09-27T08:39:48.306Z,96691.59
2022-09-27T08:42:37.250Z,96684.84
2022-09-27T08:45:14.686Z,96686.16
2022-09-27T08:47:46.378Z,96706.47
2022-09-27T08:50:23.674Z,96702.25
2022-09-27T08:52:54.836Z,96697.66
2022-09-27T08:55:25.513Z,96708.31
2022-09-27T08:57:56.552Z,96713.09
2022-09-27T09:00:24.749Z,96679.41
2022-09-27T09:02:51.359Z,96704.50
2022-09-27T09:05:30.248Z,96704.78
2022-09-27T09:08:09.938Z,96700.50
2022-09-27T09:11:07.971Z,96701.84
2022-09-27T09:13:37.317Z,96705.78
2022-09-27T09:16:22.702Z,96711.16
2022-09-27T09:19:10.015Z,96716.19
2022-09-27T09:22:16.846Z,96712.72
2022-09-27T09:25:00.145Z,96714.78
2022-09-27T09:27:43.626Z,96713.72
2022-09-27T09:30:22.367Z,96710.81
2022-09-27T09:33:26.922Z,96713.16
2022-09-27T09:36:01.592Z,96714.22
2022-09-27T09:38:41.457Z,96705.44
2022-09-27T09:41:42.650Z,96701.94
2022-09-27T09:44:15.455Z,96704.88
2022-09-27T09:46:46.411Z,96693.94
2022-09-27T09:49:35.800Z,96711.06
2022-09-27T09:52:09.088Z,96716.47
2022-09-27T09:54:53.489Z,96705.25
2022-09-27T09:57:28.347Z,96711.16
2022-09-27T10:00:01.216Z,96711.50
2022-09-27T10:02:44.177Z,96710.78
2022-09-27T10:05:18.311Z,96706.00
2022-09-27T10:07:48.654Z,96699.09
2022-09-27T10:10:17.838Z,96678.00
2022-09-27T10:13:20.700Z,96690.81
2022-09-27T10:16:04.147Z,96686.28
2022-09-27T10:18:32.776Z,96690.53
2022-09-27T10:21:04.082Z,96683.88
2022-09-27T10:23:31.275Z,96678.81
2022-09-27T10:26:09.027Z,96683.09
2022-09-27T10:28:44.588Z,96675.59
2022-09-27T10:31:19.365Z,96674.81
2022-09-27T10:34:05.433Z,96668.13
2022-09-27T10:36:40.297Z,96664.94
2022-09-27T10:39:21.805Z,96661.97
2022-09-27T10:41:48.322Z,96662.75
2022-09-27T10:44:26.842Z,96673.44
2022-09-27T10:47:09.813Z,96669.56
2022-09-27T10:49:44.954Z,96669.19
2022-09-27T10:52:36.030Z,96669.19
2022-09-27T10:55:17.566Z,96673.25
2022-09-27T10:57:49.937Z,96661.25
2022-09-27T11:00:25.781Z,96683.69
2022-09-27T11:02:58.608Z,96672.06
2022-09-27T11:05:36.140Z,96661.56
2022-09-27T11:08:27.310Z,96666.19
2022-09-27T11:11:06.822Z,96661.06
2022-09-27T11:13:36.079Z,96662.19
2022-09-27T11:16:22.902Z,96653.09
2022-09-27T11:19:15.531Z,96654.16
2022-09-27T11:22:08.517Z,96645.72
2022-09-27T11:24:54.747Z,96651.28
2022-09-27T11:27:46.953Z,96644.06
2022-09-27T11:30:17.974Z,96635.50
2022-09-27T11:33:23.799Z,96632.59
2022-09-27T11:36:13.807Z,96628.59
2022-09-27T11:39:02.967Z,96633.94
2022-09-27T11:41:48.418Z,96639.53
2022-09-27T11:45:07.947Z,96622.94
2022-09-27T11:47:48.718Z,96615.16
2022-09-27T11:50:27.105Z,96620.75
2022-09-27T11:52:57.870Z,96622.09
2022-09-27T11:55:40.278Z,96609.22
2022-09-27T11:58:21.607Z,96605.97
2022-09-27T12:01:15.576Z,96600.03
2022-09-27T12:04:05.589Z,96603.50
2022-09-27T12:06:58.731Z,96606.50
2022-09-27T12:09:34.689Z,96604.91
2022-09-27T12:12:06.188Z,96606.72
2022-09-27T12:14:50.645Z,96604.94
2022-09-27T12:17:25.739Z,96585.22
2022-09-27T12:19:58.437Z,96597.91
2022-09-27T12:22:58.623Z,96574.91
2022-09-27T12:25:41.210Z,96568.38
2022-09-27T12:28:28.272Z,96591.75
2022-09-27T12:31:27.435Z,96589.28
2022-09-27T12:34:02.801Z,96585.63
2022-09-27T12:36:38.291Z,96593.09
2022-09-27T12:39:15.957Z,96584.19
2022-09-27T12:41:53.268Z,96589.03
2022-09-27T12:44:39.396Z,96590.34
2022-09-27T12:47:13.047Z,96583.44
2022-09-27T12:50:00.315Z,96582.22
2022-09-27T12:52:35.146Z,96585.13
2022-09-27T12:55:38.927Z,96604.44
2022-09-27T12:58:15.694Z,96597.53
2022-09-27T13:00:59.266Z,96599.78
2022-09-27T13:03:54.465Z,96602.47
2022-09-27T13:06:42.936Z,96605.63
2022-09-27T13:09:40.081Z,96608.03
2022-09-27T13:12:16.209Z,96602.25
2022-09-27T13:15:07.667Z,96605.19
2022-09-27T13:17:40.672Z,96604.41
2022-09-27T13:20:28.094Z,96596.22
2022-09-27T13:22:54.776Z,96586.94
2022-09-27T13:25:55.809Z,96587.00
2022-09-27T13:28:50.281Z,96585.69
2022-09-27T13:31:53.807Z,96590.19
2022-09-27T13:34:45.252Z,96588.03
2022-09-27T13:37:45.489Z,96580.88
2022-09-27T13:40:15.752Z,96586.69
2022-09-27T13:43:35.546Z,96594.22
2022-09-27T13:46:16.655Z,96590.75
2022-09-27T13:49:27.355Z,96588.31
2022-09-27T13:52:26.768Z,96580.03
2022-09-27T13:55:37.246Z,96575.22
2022-09-27T13:58:19.512Z,96580.28
2022-09-27T14:00:53.382Z,96584.84
2022-09-27T14:03:30.325Z,96569.63
2022-09-27T14:06:15.535Z,96580.00
2022-09-27T14:08:50.692Z,96575.75
2022-09-27T14:11:28.110Z,96579.22
2022-09-27T14:13:56.163Z,96578.97
2022-09-27T14:16:31.601Z,96570.41
2022-09-27T14:18:59.514Z,96559.75
2022-09-27T14:21:39.956Z,96589.13
2022-09-27T14:24:44.266Z,96580.31
2022-09-27T14:27:27.427Z,96546.69
2022-09-27T14:30:18.698Z,96572.59
2022-09-27T14:32:58.430Z,96583.22
2022-09-27T14:36:07.315Z,96578.41
2022-09-27T14:38:39.154Z,96579.53
2022-09-27T14:41:26.293Z,96585.69
2022-09-27T14:43:53.697Z,96556.84
2022-09-27T14:46:31.924Z,96588.59
2022-09-27T14:48:59.651Z,96614.22
2022-09-27T14:51:29.597Z,96601.41
2022-09-27T14:54:00.993Z,96599.03
2022-09-27T14:56:34.796Z,96614.75
2022-09-27T14:59:16.958Z,96614.75
2022-09-27T15:01:51.575Z,96619.03
2022-09-27T15:04:20.178Z,96622.47
2022-09-27T15:06:47.807Z,96620.59
2022-09-27T15:09:16.758Z,96623.22
2022-09-27T15:11:46.302Z,96596.28
2022-09-27T15:14:17.339Z,96620.31
2022-09-27T15:16:47.330Z,96621.13
2022-09-27T15:19:19.341Z,96621.69
2022-09-27T15:21:45.892Z,96600.06
2022-09-27T15:24:44.490Z,96629.16
2022-09-27T15:27:21.516Z,96631.28
2022-09-27T15:29:57.007Z,96629.94
2022-09-27T15:32:26.522Z,96548.81
2022-09-27T15:34:54.533Z,96637.16
2022-09-27T15:37:39.218Z,96635.56
2022-09-27T15:40:47.127Z,96639.03
2022-09-27T15:43:37.166Z,96638.50
2022-09-27T15:46:24.033Z,96641.97
2022-09-27T15:49:30.170Z,96642.75
2022-09-27T15:51:59.388Z,96637.69
2022-09-27T15:54:30.171Z,96645.13
2022-09-27T15:57:02.085Z,96643.03
2022-09-27T15:59:30.425Z,96644.53
2022-09-27T16:02:07.595Z,96641.09
2022-09-27T16:04:34.518Z,96636.03
2022-09-27T16:07:04.661Z,96632.84
2022-09-27T16:09:31.058Z,96632.81
2022-09-27T16:11:57.538Z,96637.63
2022-09-27T16:14:23.976Z,96634.41
2022-09-27T16:16:58.726Z,96641.34
2022-09-27T16:19:25.224Z,96649.84
2022-09-27T16:21:51.600Z,96646.63
2022-09-27T16:24:18.516Z,96644.22
2022-09-27T16:26:44.905Z,96608.97
2022-09-27T16:29:13.799Z,96641.56
2022-09-27T16:31:41.241Z,96647.94
2022-09-27T16:34:09.936Z,96655.91
2022-09-27T16:36:36.419Z,96652.41
2022-09-27T16:39:05.096Z,96655.38
2022-09-27T16:41:33.203Z,96656.16
2022-09-27T16:44:05.564Z,96659.31
2022-09-27T16:46:34.560Z,96659.59
2022-09-27T16:49:01.576Z,96652.63
2022-09-27T16:51:47.040Z,96664.66
2022-09-27T16:54:15.591Z,96665.47
2022-09-27T16:56:42.321Z,96668.94
2022-09-27T16:59:08.744Z,96669.41
2022-09-27T17:01:35.440Z,96670.75
2022-09-27T17:04:01.954Z,96671.75
2022-09-27T17:06:32.002Z,96676.28
2022-09-27T17:09:02.218Z,96672.25
2022-09-27T17:11:29.426Z,96641.50
2022-09-27T17:13:55.954Z,96677.31
2022-09-27T17:16:24.123Z,96670.56
2022-09-27T17:18:51.131Z,96679.56
2022-09-27T17:21:17.541Z,96646.47
2022-09-27T17:23:43.965Z,96674.53
2022-09-27T17:26:21.688Z,96689.69
2022-09-27T17:28:49.921Z,96688.56
2022-09-27T17:31:18.686Z,96516.13
2022-09-27T17:33:47.412Z,96696.72
2022-09-27T17:36:18.329Z,96674.47
2022-09-27T17:38:46.101Z,96683.00
2022-09-27T17:41:15.495Z,96689.06
2022-09-27T17:43:49.498Z,96686.63
2022-09-27T17:46:18.312Z,96674.59
2022-09-27T17:49:04.018Z,96675.00
2022-09-27T17:51:31.459Z,96635.09
2022-09-27T17:53:58.079Z,96669.84
2022-09-27T17:56:24.725Z,96674.91
2022-09-27T17:58:53.473Z,96671.44
2022-09-27T18:01:21.892Z,96683.63
2022-09-27T18:03:54.680Z,96684.34
2022-09-27T18:06:21.917Z,96685.25
2022-09-27T18:08:48.310Z,96683.06
2022-09-27T18:11:18.031Z,96688.84
2022-09-27T18:13:44.840Z,96693.81
2022-09-27T18:16:17.305Z,96689.28
2022-09-27T18:18:48.029Z,96694.34
2022-09-27T18:21:22.336Z,96696.72
2022-09-27T18:23:54.889Z,96698.31
2022-09-27T18:26:24.273Z,96683.84
2022-09-27T18:28:53.095Z,96696.13
2022-09-27T18:31:21.517Z,96696.91
2022-09-27T18:33:49.877Z,96703.84
2022-09-27T18:36:21.308Z,96689.50
2022-09-27T18:38:53.474Z,96696.13
2022-09-27T18:41:21.148Z,96692.13
2022-09-27T18:43:47.831Z,96699.28
2022-09-27T18:46:37.404Z,96695.44
2022-09-27T18:49:07.116Z,96695.81
2022-09-27T18:51:37.129Z,96695.00
2022-09-27T18:54:06.144Z,96695.50
2022-09-27T18:56:38.931Z,96689.59
2022-09-27T18:59:09.398Z,96684.97
2022-09-27T19:01:39.618Z,96688.44
2022-09-27T19:04:08.012Z,96703.25
2022-09-27T19:06:35.159Z,96686.06
2022-09-27T19:09:03.564Z,96619.66
2022-09-27T19:11:31.496Z,96679.28
2022-09-27T19:18:10.600Z,96671.38
2022-09-27T19:20:37.520Z,96680.09
2022-09-27T19:23:03.947Z,96670.75
2022-09-27T19:25:30.351Z,96672.81
2022-09-27T19:27:56.750Z,96684.00
2022-09-27T19:30:23.327Z,96690.38
2022-09-27T19:32:52.350Z,96684.00
2022-09-27T19:35:18.734Z,96681.06
2022-09-27T19:37:45.164Z,96682.47
2022-09-27T19:40:11.636Z,96686.81
2022-09-27T19:42:38.334Z,96679.44
2022-09-27T19:45:10.642Z,96679.97
2022-09-27T19:47:37.981Z,96677.50
2022-09-27T19:50:04.548Z,96683.72
2022-09-27T19:52:31.526Z,96656.22
2022-09-27T19:54:58.362Z,96678.41
2022-09-27T19:57:25.456Z,96682.75
2022-09-27T19:59:51.818Z,96673.63
2022-09-27T20:02:18.677Z,96649.56
2022-09-27T20:04:45.367Z,96677.69
2022-09-27T20:07:11.781Z,96679.88
2022-09-27T20:09:38.140Z,96679.56
2022-09-27T20:12:05.200Z,96671.84
2022-09-27T20:14:32.192Z,96647.66
2022-09-27T20:16:58.550Z,96664.63
2022-09-27T20:19:24.917Z,96657.53
2022-09-27T20:21:51.757Z,96665.22
2022-09-27T20:24:18.190Z,96634.47
2022-09-27T20:26:44.846Z,96651.69
2022-09-27T20:29:11.289Z,96647.16
2022-09-27T20:31:57.018Z,96624.00
2022-09-27T20:34:29.842Z,96629.13
2022-09-27T20:36:56.311Z,96644.50
2022-09-27T20:39:23.576Z,96641.59
2022-09-27T20:41:50.713Z,96617.47
2022-09-27T20:44:19.764Z,96620.56
2022-09-27T20:46:47.496Z,96629.00
2022-09-27T20:49:16.561Z,96608.88
2022-09-27T20:51:44.958Z,96610.50
2022-09-27T20:54:12.607Z,96591.09
2022-09-27T20:56:41.551Z,96607.75
2022-09-27T20:59:22.469Z,96609.88
2022-09-27T21:01:51.375Z,96585.81
2022-09-27T21:04:19.003Z,96588.19
2022-09-27T21:06:45.978Z,96589.31
2022-09-27T21:09:18.472Z,96579.94
2022-09-27T21:11:46.688Z,96574.91
2022-09-27T21:14:13.179Z,96568.34
2022-09-27T21:16:39.695Z,96569.94
2022-09-27T21:19:06.256Z,96557.00
2022-09-27T21:21:33.504Z,96524.28
2022-09-27T21:24:01.923Z,96547.84
2022-09-27T21:26:33.416Z,96543.19
2022-09-27T21:29:01.878Z,96559.06
2022-09-27T21:31:32.302Z,96546.06
2022-09-27T21:34:01.297Z,96545.97
2022-09-27T21:36:33.176Z,96539.56
2022-09-27T21:38:59.897Z,96547.50
2022-09-27T21:41:27.406Z,96545.31
2022-09-27T21:43:54.088Z,96537.47
2022-09-27T21:46:26.510Z,96523.16
2022-09-27T21:48:55.951Z,96519.63
2022-09-27T21:51:27.481Z,96510.91
2022-09-27T21:54:00.638Z,96522.94
2022-09-27T21:56:33.379Z,96507.81
2022-09-27T21:59:00.004Z,96505.53
2022-09-27T22:01:29.631Z,96497.19
2022-09-27T22:03:57.381Z,96477.00
2022-09-27T22:06:29.590Z,96495.03
2022-09-27T22:08:56.902Z,96483.97
2022-09-27T22:11:25.765Z,96450.34
2022-09-27T22:13:52.295Z,96488.06
2022-09-27T22:16:20.228Z,96472.94
2022-09-27T22:18:48.939Z,96469.66
2022-09-27T22:21:19.879Z,96471.53
2022-09-27T22:23:46.581Z,96465.44
2022-09-27T22:26:17.313Z,96457.31
2022-09-27T22:28:45.117Z,96452.59
2022-09-27T22:31:14.882Z,96452.09
2022-09-27T22:33:42.823Z,96452.19
2022-09-27T22:36:09.210Z,96454.94
2022-09-27T22:38:35.696Z,96458.97
2022-09-27T22:41:03.227Z,96445.97
2022-09-27T22:43:30.474Z,96453.06
2022-09-27T22:45:57.588Z,96432.09
2022-09-27T22:48:24.086Z,96434.72
2022-09-27T22:50:50.493Z,96423.91
2022-09-27T22:53:17.064Z,96419.31
2022-09-27T22:55:43.434Z,96398.00
2022-09-27T22:58:09.893Z,96415.38
2022-09-27T23:00:38.018Z,96408.16
2022-09-27T23:03:04.572Z,96405.53
2022-09-27T23:05:30.920Z,96386.91
2022-09-27T23:07:57.392Z,96407.50
2022-09-27T23:10:23.782Z,96395.47
2022-09-27T23:12:58.153Z,96388.06
2022-09-27T23:15:24.704Z,96391.72
2022-09-27T23:17:51.558Z,96380.03
2022-09-27T23:20:18.658Z,96387.78
2022-09-27T23:22:45.446Z,96371.00
2022-09-27T23:25:12.592Z,96377.47
2022-09-27T23:27:42.038Z,96381.47
2022-09-27T23:30:09.909Z,96376.41
2022-09-27T23:32:36.539Z,96372.75
2022-09-27T23:35:03.816Z,96367.44
2022-09-27T23:37:30.847Z,96315.75
2022-09-27T23:39:57.331Z,96356.56
2022-09-27T23:42:23.877Z,96365.91
2022-09-27T23:44:52.572Z,96348.59
2022-09-27T23:47:19.009Z,96341.16
2022-09-27T23:49:45.463Z,96357.38
2022-09-27T23:52:13.530Z,96355.00
2022-09-27T23:54:40.652Z,96342.75
2022-09-27T23:57:07.582Z,96349.94
2022-09-27T23:59:34.028Z,96338.00
